Time;durP1;ratioP1;P1;durP2;ratioP2;P2;SDS_P1;SDS_P2;PMS_P1;PMS_P2;Temp;Humidity;BMP_temperature;BMP_pressure;BME280_temperature;BME280_humidity;BME280_pressure;Samples;Min_cycle;Max_cycle;Signal;HPM_P1;HPM_P2
2022/03/18 00:00:47;;;;;;;52.28;32.83;;;;;;;;;;5121974;27;20106;-66
2022/03/18 00:03:13;;;;;;;49.78;33.42;;;;;;;;;;5103478;27;20153;-67
2022/03/18 00:05:41;;;;;;;50.50;33.05;;;;;;;;;;5120757;27;20020;-67
2022/03/18 00:08:07;;;;;;;48.45;32.92;;;;;;;;;;5119766;27;20022;-67
2022/03/18 00:10:33;;;;;;;55.35;33.58;;;;;;;;;;5118878;27;20388;-67
2022/03/18 00:13:00;;;;;;;48.97;32.97;;;;;;;;;;5102043;27;20103;-67
2022/03/18 00:15:27;;;;;;;52.22;34.25;;;;;;;;;;5120687;27;20471;-66
2022/03/18 00:17:53;;;;;;;49.80;33.25;;;;;;;;;;5119283;27;20048;-67
2022/03/18 00:20:20;;;;;;;52.72;33.10;;;;;;;;;;5116848;27;20015;-66
2022/03/18 00:22:46;;;;;;;50.13;33.45;;;;;;;;;;5118713;27;20023;-67
2022/03/18 00:25:13;;;;;;;52.58;32.47;;;;;;;;;;5118808;27;20065;-66
2022/03/18 00:27:42;;;;;;;48.60;32.80;;;;;;;;;;5122004;27;20055;-66
2022/03/18 00:30:09;;;;;;;50.33;32.97;;;;;;;;;;5119480;27;20385;-66
2022/03/18 00:32:37;;;;;;;57.05;34.55;;;;;;;;;;5120297;27;20464;-66
2022/03/18 00:35:03;;;;;;;52.30;34.10;;;;;;;;;;5120004;27;20061;-66
2022/03/18 00:37:29;;;;;;;51.55;33.00;;;;;;;;;;5117584;27;20032;-66
2022/03/18 00:39:55;;;;;;;51.35;32.22;;;;;;;;;;5120581;27;20712;-67
2022/03/18 00:42:21;;;;;;;48.10;31.33;;;;;;;;;;5122602;27;20034;-66
2022/03/18 00:44:48;;;;;;;53.00;33.35;;;;;;;;;;5101043;27;20023;-67
2022/03/18 00:52:43;;;;;;;47.28;31.92;;;;;;;;;;5108535;28;20600;-67
2022/03/18 00:55:10;;;;;;;48.65;32.28;;;;;;;;;;5109796;28;20110;-67
2022/03/18 00:57:37;;;;;;;47.97;30.50;;;;;;;;;;5111253;28;20020;-67
2022/03/18 01:00:03;;;;;;;46.13;32.17;;;;;;;;;;5091499;28;20019;-67
2022/03/18 01:02:29;;;;;;;52.20;31.58;;;;;;;;;;5109241;28;20020;-67
2022/03/18 01:04:55;;;;;;;50.35;30.20;;;;;;;;;;5109719;28;20041;-67
2022/03/18 01:07:21;;;;;;;46.88;31.95;;;;;;;;;;5089853;28;20048;-67
2022/03/18 01:09:47;;;;;;;49.70;31.92;;;;;;;;;;5106719;28;20114;-66
2022/03/18 01:12:13;;;;;;;45.53;31.38;;;;;;;;;;5093568;28;20036;-67
2022/03/18 01:14:39;;;;;;;46.65;31.40;;;;;;;;;;5095452;28;20020;-66
2022/03/18 01:17:05;;;;;;;44.35;30.77;;;;;;;;;;5095938;28;20024;-67
2022/03/18 01:19:31;;;;;;;46.72;31.38;;;;;;;;;;5076057;28;20056;-66
2022/03/18 01:21:58;;;;;;;46.17;31.35;;;;;;;;;;5091631;28;20059;-68
2022/03/18 01:24:24;;;;;;;45.88;30.48;;;;;;;;;;5097045;28;20800;-67
2022/03/18 01:26:50;;;;;;;41.03;28.00;;;;;;;;;;5096636;28;20111;-67
2022/03/18 01:29:17;;;;;;;44.30;29.83;;;;;;;;;;5095809;28;20085;-67
2022/03/18 01:31:43;;;;;;;44.47;30.38;;;;;;;;;;5096503;28;20035;-67
2022/03/18 01:34:09;;;;;;;47.67;30.60;;;;;;;;;;5092636;28;20028;-66
2022/03/18 01:36:36;;;;;;;45.50;31.35;;;;;;;;;;5088984;28;20076;-67
2022/03/18 01:39:02;;;;;;;44.78;30.40;;;;;;;;;;5109332;28;20055;-67
2022/03/18 01:41:28;;;;;;;45.50;31.20;;;;;;;;;;5104718;28;20089;-66
2022/03/18 01:43:54;;;;;;;47.53;32.05;;;;;;;;;;5100152;28;20038;-66
2022/03/18 01:46:21;;;;;;;50.58;31.73;;;;;;;;;;5080234;28;20031;-66
2022/03/18 01:48:48;;;;;;;48.28;31.85;;;;;;;;;;5097193;28;20028;-67
2022/03/18 01:51:15;;;;;;;46.72;30.45;;;;;;;;;;5099119;28;20046;-67
2022/03/18 01:53:43;;;;;;;46.42;30.65;;;;;;;;;;5099933;28;20020;-66
2022/03/18 01:56:09;;;;;;;46.25;30.67;;;;;;;;;;5100116;28;20051;-66
2022/03/18 01:58:35;;;;;;;49.38;30.48;;;;;;;;;;5081714;28;20019;-66
2022/03/18 02:01:01;;;;;;;47.05;30.48;;;;;;;;;;5095293;28;20024;-66
2022/03/18 02:03:27;;;;;;;47.70;29.88;;;;;;;;;;5099360;28;20028;-66
2022/03/18 02:05:53;;;;;;;46.97;30.13;;;;;;;;;;5099645;28;20031;-67
2022/03/18 02:08:20;;;;;;;43.05;30.10;;;;;;;;;;5085123;28;20495;-67
2022/03/18 02:10:46;;;;;;;45.33;29.08;;;;;;;;;;5109970;28;20043;-67
2022/03/18 02:13:12;;;;;;;50.60;29.45;;;;;;;;;;5078279;28;20038;-67
2022/03/18 02:15:39;;;;;;;42.55;28.40;;;;;;;;;;5092757;28;20552;-66
2022/03/18 02:18:05;;;;;;;43.28;28.55;;;;;;;;;;5100254;28;20020;-67
2022/03/18 02:20:32;;;;;;;52.63;31.88;;;;;;;;;;5081266;28;20024;-66
2022/03/18 02:22:58;;;;;;;44.78;28.83;;;;;;;;;;5099158;28;20075;-67
2022/03/18 02:25:24;;;;;;;47.75;30.73;;;;;;;;;;5110707;28;20055;-67
2022/03/18 02:27:57;;;;;;;46.78;30.05;;;;;;;;;;5096933;28;20020;-67
2022/03/18 02:30:24;;;;;;;45.38;30.23;;;;;;;;;;5098539;28;20512;-67
2022/03/18 02:32:50;;;;;;;43.50;29.02;;;;;;;;;;5099030;28;20025;-67
2022/03/18 02:35:16;;;;;;;42.65;29.35;;;;;;;;;;5098697;28;20085;-66
2022/03/18 02:37:42;;;;;;;46.22;29.15;;;;;;;;;;5099142;28;20426;-66
2022/03/18 02:40:08;;;;;;;49.65;30.20;;;;;;;;;;5094645;28;20077;-67
2022/03/18 02:42:34;;;;;;;46.40;29.90;;;;;;;;;;5098283;28;20073;-67
2022/03/18 02:45:00;;;;;;;46.05;30.48;;;;;;;;;;5099165;28;20016;-66
2022/03/18 02:47:27;;;;;;;44.50;28.77;;;;;;;;;;5098623;28;20020;-67
2022/03/18 02:49:53;;;;;;;43.88;28.02;;;;;;;;;;5098038;28;20473;-67
2022/03/18 02:52:19;;;;;;;45.50;29.75;;;;;;;;;;5095510;28;20036;-67
2022/03/18 02:54:45;;;;;;;46.92;29.20;;;;;;;;;;5092542;28;20031;-67
2022/03/18 02:57:12;;;;;;;50.55;30.50;;;;;;;;;;5098843;28;20020;-66
2022/03/18 02:59:38;;;;;;;45.33;30.73;;;;;;;;;;5098395;28;20740;-66
2022/03/18 03:02:05;;;;;;;45.15;29.95;;;;;;;;;;5098648;28;20016;-66
2022/03/18 03:04:31;;;;;;;46.70;30.85;;;;;;;;;;5097324;28;20024;-67
2022/03/18 03:09:41;;;;;;;46.22;30.85;;;;;;;;;;5110397;28;20431;-67
2022/03/18 03:12:07;;;;;;;49.38;30.67;;;;;;;;;;5107192;28;20027;-66
2022/03/18 03:14:34;;;;;;;51.95;31.67;;;;;;;;;;5102483;28;20481;-67
2022/03/18 03:17:00;;;;;;;51.53;33.15;;;;;;;;;;5098702;28;20020;-67
2022/03/18 03:19:26;;;;;;;49.30;32.05;;;;;;;;;;5078847;28;20043;-66
2022/03/18 03:21:52;;;;;;;46.08;30.50;;;;;;;;;;5094976;28;20059;-66
2022/03/18 03:24:18;;;;;;;49.60;31.52;;;;;;;;;;5079201;28;20439;-66
2022/03/18 03:26:44;;;;;;;43.20;29.73;;;;;;;;;;5098357;28;20024;-67
2022/03/18 03:29:10;;;;;;;42.13;29.95;;;;;;;;;;5098077;28;20054;-66
2022/03/18 03:31:36;;;;;;;47.95;31.05;;;;;;;;;;5094625;28;20035;-66
2022/03/18 03:34:02;;;;;;;47.35;29.77;;;;;;;;;;5109973;28;20046;-66
2022/03/18 03:36:28;;;;;;;44.88;29.77;;;;;;;;;;5079388;28;20030;-67
2022/03/18 03:38:54;;;;;;;48.28;30.42;;;;;;;;;;5097705;28;20028;-66
2022/03/18 03:41:22;;;;;;;49.15;31.13;;;;;;;;;;5097460;28;20099;-66
2022/03/18 03:43:48;;;;;;;48.65;30.58;;;;;;;;;;5098007;28;20022;-67
2022/03/18 03:46:14;;;;;;;50.65;30.63;;;;;;;;;;5077002;28;20055;-66
2022/03/18 03:48:40;;;;;;;44.70;29.27;;;;;;;;;;5095666;28;20095;-66
2022/03/18 03:51:06;;;;;;;46.03;30.30;;;;;;;;;;5097846;28;20112;-67
2022/03/18 03:53:32;;;;;;;42.92;28.67;;;;;;;;;;5096963;28;20028;-67
2022/03/18 03:55:58;;;;;;;46.38;30.20;;;;;;;;;;5097727;28;20119;-66
2022/03/18 03:58:24;;;;;;;50.35;30.40;;;;;;;;;;5095598;28;20099;-66
2022/03/18 04:00:50;;;;;;;41.70;28.52;;;;;;;;;;5094782;28;20477;-66
2022/03/18 04:03:16;;;;;;;45.10;28.25;;;;;;;;;;5096708;28;20144;-67
2022/03/18 04:05:42;;;;;;;40.75;27.58;;;;;;;;;;5097181;28;20069;-66
2022/03/18 04:08:08;;;;;;;44.60;28.60;;;;;;;;;;5098278;28;20019;-67
2022/03/18 04:10:34;;;;;;;42.35;28.23;;;;;;;;;;5109065;28;20023;-67
2022/03/18 04:13:00;;;;;;;44.30;29.35;;;;;;;;;;5092974;28;20027;-67
2022/03/18 04:15:26;;;;;;;43.10;27.42;;;;;;;;;;5096909;28;20024;-67
2022/03/18 04:17:52;;;;;;;45.70;28.15;;;;;;;;;;5097022;28;20024;-67
2022/03/18 04:20:20;;;;;;;41.97;28.33;;;;;;;;;;5096991;28;20563;-66
2022/03/18 04:22:46;;;;;;;43.50;28.27;;;;;;;;;;5079132;28;20081;-66
2022/03/18 04:25:13;;;;;;;45.05;29.30;;;;;;;;;;5093951;28;20125;-65
2022/03/18 04:27:39;;;;;;;44.33;28.42;;;;;;;;;;5095335;28;20080;-65
2022/03/18 04:30:06;;;;;;;43.88;30.00;;;;;;;;;;5096425;28;20052;-66
2022/03/18 04:32:32;;;;;;;42.80;30.13;;;;;;;;;;5096361;28;20035;-65
2022/03/18 04:34:58;;;;;;;48.65;29.20;;;;;;;;;;5096946;28;20705;-65
2022/03/18 04:37:25;;;;;;;48.75;30.30;;;;;;;;;;5094770;28;20055;-65
2022/03/18 04:39:51;;;;;;;52.13;29.48;;;;;;;;;;5093810;28;20028;-65
2022/03/18 04:42:17;;;;;;;48.67;30.27;;;;;;;;;;5096391;28;20485;-66
2022/03/18 04:44:44;;;;;;;53.00;32.55;;;;;;;;;;5096385;28;20103;-66
2022/03/18 04:47:10;;;;;;;43.45;28.38;;;;;;;;;;5097161;28;20080;-65
2022/03/18 04:49:36;;;;;;;46.05;30.10;;;;;;;;;;5093604;28;20035;-67
2022/03/18 04:52:02;;;;;;;46.78;30.45;;;;;;;;;;5108786;28;20036;-65
2022/03/18 04:54:28;;;;;;;43.15;28.58;;;;;;;;;;5077805;28;20024;-66
2022/03/18 04:57:36;;;;;;;40.47;29.23;;;;;;;;;;5096208;28;20034;-65
2022/03/18 04:59:43;;;;;;;44.95;30.38;;;;;;;;;;5085324;28;20065;-65
2022/03/18 05:02:14;;;;;;;43.72;29.20;;;;;;;;;;5096040;28;20028;-65
2022/03/18 05:04:41;;;;;;;43.55;29.05;;;;;;;;;;5096288;28;20016;-65
2022/03/18 05:07:07;;;;;;;44.03;30.35;;;;;;;;;;5092102;28;20035;-65
2022/03/18 05:09:33;;;;;;;42.20;28.90;;;;;;;;;;5108709;28;20011;-65
2022/03/18 05:12:00;;;;;;;48.97;30.20;;;;;;;;;;5095535;28;20067;-66
2022/03/18 05:14:26;;;;;;;44.78;28.42;;;;;;;;;;5096082;28;20020;-65
2022/03/18 05:16:52;;;;;;;46.67;28.52;;;;;;;;;;5096232;28;20062;-66
2022/03/18 05:19:18;;;;;;;41.70;28.42;;;;;;;;;;5093168;28;20019;-66
2022/03/18 05:21:44;;;;;;;45.13;28.67;;;;;;;;;;5089326;28;20032;-65
2022/03/18 05:24:10;;;;;;;43.40;29.08;;;;;;;;;;5096084;28;20546;-65
2022/03/18 05:26:40;;;;;;;41.17;27.38;;;;;;;;;;5095916;28;20073;-65
2022/03/18 05:29:06;;;;;;;41.05;26.80;;;;;;;;;;5096809;28;20508;-65
2022/03/18 05:31:32;;;;;;;45.55;26.75;;;;;;;;;;5107706;28;20040;-66
2022/03/18 05:33:58;;;;;;;43.05;27.13;;;;;;;;;;5074166;28;20016;-66
2022/03/18 05:36:24;;;;;;;40.63;26.80;;;;;;;;;;5106717;28;20430;-66
2022/03/18 05:38:50;;;;;;;40.38;27.27;;;;;;;;;;5079503;28;20484;-66
2022/03/18 05:41:16;;;;;;;39.60;26.10;;;;;;;;;;5095645;28;20028;-66
2022/03/18 05:43:43;;;;;;;39.65;27.42;;;;;;;;;;5095450;28;20026;-66
2022/03/18 05:46:09;;;;;;;41.80;27.97;;;;;;;;;;5092039;28;20035;-65
2022/03/18 05:48:35;;;;;;;40.58;27.90;;;;;;;;;;5094645;28;20470;-66
2022/03/18 05:51:01;;;;;;;47.40;28.38;;;;;;;;;;5096360;28;20115;-66
2022/03/18 05:53:28;;;;;;;41.97;27.80;;;;;;;;;;5095325;28;20134;-66
2022/03/18 05:58:39;;;;;;;44.88;28.70;;;;;;;;;;5095894;28;20418;-67
2022/03/18 06:01:05;;;;;;;44.42;29.13;;;;;;;;;;5091797;28;20464;-67
2022/03/18 06:03:31;;;;;;;45.67;29.08;;;;;;;;;;5076442;28;20032;-67
2022/03/18 06:05:58;;;;;;;39.17;27.00;;;;;;;;;;5095951;28;20026;-67
2022/03/18 06:13:54;;;;;;;44.45;27.77;;;;;;;;;;5102181;28;20094;-67
2022/03/18 06:16:19;;;;;;;43.65;28.15;;;;;;;;;;5108984;28;20023;-67
2022/03/18 06:18:45;;;;;;;44.53;28.75;;;;;;;;;;5108721;28;20051;-67
2022/03/18 06:21:15;;;;;;;41.42;26.63;;;;;;;;;;5110570;28;20114;-68
2022/03/18 06:23:40;;;;;;;40.60;24.95;;;;;;;;;;5100362;28;20020;-68
2022/03/18 06:26:07;;;;;;;40.53;26.13;;;;;;;;;;5098837;28;20043;-68
2022/03/18 06:28:33;;;;;;;42.33;26.45;;;;;;;;;;5098208;28;20050;-68
2022/03/18 06:30:59;;;;;;;39.80;25.63;;;;;;;;;;5095577;28;20063;-68
2022/03/18 06:33:27;;;;;;;42.33;26.48;;;;;;;;;;5098647;28;20047;-67
2022/03/18 06:35:53;;;;;;;42.53;26.55;;;;;;;;;;5098759;28;20020;-69
2022/03/18 06:38:19;;;;;;;44.97;27.02;;;;;;;;;;5081387;28;20031;-68
2022/03/18 06:40:45;;;;;;;40.00;26.88;;;;;;;;;;5089874;28;20032;-68
2022/03/18 06:43:11;;;;;;;39.17;26.33;;;;;;;;;;5095401;28;20374;-68
2022/03/18 06:45:37;;;;;;;39.13;25.27;;;;;;;;;;5079117;28;20166;-69
2022/03/18 06:48:03;;;;;;;38.58;25.77;;;;;;;;;;5089205;28;20028;-68
2022/03/18 06:50:29;;;;;;;38.45;26.02;;;;;;;;;;5103105;28;20036;-68
2022/03/18 06:52:56;;;;;;;39.20;25.95;;;;;;;;;;5098916;28;20124;-68
2022/03/18 06:55:21;;;;;;;41.00;26.30;;;;;;;;;;5096172;28;20064;-68
2022/03/18 06:57:47;;;;;;;37.17;24.83;;;;;;;;;;5096113;28;20475;-68
2022/03/18 07:00:14;;;;;;;39.20;27.40;;;;;;;;;;5098416;28;20032;-68
2022/03/18 07:02:40;;;;;;;38.83;25.08;;;;;;;;;;5098284;28;20024;-68
2022/03/18 07:05:06;;;;;;;42.10;27.50;;;;;;;;;;5080705;28;20488;-68
2022/03/18 07:07:32;;;;;;;43.58;27.60;;;;;;;;;;5097694;28;20032;-68
2022/03/18 07:09:58;;;;;;;39.10;26.95;;;;;;;;;;5107443;28;20023;-68
2022/03/18 07:12:24;;;;;;;45.15;26.65;;;;;;;;;;5097478;28;20546;-68
2022/03/18 07:14:50;;;;;;;39.25;27.58;;;;;;;;;;5097829;28;20031;-68
2022/03/18 07:20:01;;;;;;;43.55;28.42;;;;;;;;;;5098310;28;20039;-68
2022/03/18 07:22:27;;;;;;;45.35;28.48;;;;;;;;;;5079258;28;20031;-68
2022/03/18 07:24:53;;;;;;;43.72;28.70;;;;;;;;;;5094376;28;20032;-69
2022/03/18 07:27:19;;;;;;;41.25;27.73;;;;;;;;;;5109056;28;20027;-68
2022/03/18 07:29:45;;;;;;;43.28;27.42;;;;;;;;;;5099862;28;20120;-67
2022/03/18 07:32:11;;;;;;;40.70;27.48;;;;;;;;;;5079953;28;20036;-67
2022/03/18 07:34:37;;;;;;;43.20;28.65;;;;;;;;;;5097363;28;20365;-67
2022/03/18 07:37:03;;;;;;;44.75;29.27;;;;;;;;;;5093158;28;20031;-67
2022/03/18 07:39:29;;;;;;;41.72;29.02;;;;;;;;;;5096910;28;20055;-68
2022/03/18 07:41:55;;;;;;;47.45;31.02;;;;;;;;;;5097991;28;20028;-68
2022/03/18 07:44:21;;;;;;;45.03;30.27;;;;;;;;;;5078660;28;20020;-66
2022/03/18 07:46:47;;;;;;;40.70;28.98;;;;;;;;;;5096573;28;20028;-67
2022/03/18 07:49:13;;;;;;;48.60;29.75;;;;;;;;;;5075630;28;20063;-67
2022/03/18 07:51:39;;;;;;;46.40;30.33;;;;;;;;;;5076201;28;20493;-68
2022/03/18 07:54:05;;;;;;;44.95;29.65;;;;;;;;;;5097225;28;20055;-67
2022/03/18 07:56:31;;;;;;;47.72;30.75;;;;;;;;;;5096729;28;20389;-67
2022/03/18 07:58:57;;;;;;;47.13;31.77;;;;;;;;;;5097449;28;20031;-69
2022/03/18 08:01:23;;;;;;;47.70;31.88;;;;;;;;;;5077055;28;20020;-66
2022/03/18 08:03:49;;;;;;;47.97;33.00;;;;;;;;;;5094734;28;20089;-67
2022/03/18 08:06:16;;;;;;;49.15;31.75;;;;;;;;;;5096843;28;20115;-68
2022/03/18 08:08:42;;;;;;;52.78;33.08;;;;;;;;;;5103625;28;20015;-68
2022/03/18 08:11:08;;;;;;;48.03;33.75;;;;;;;;;;5104317;28;20032;-67
2022/03/18 08:13:34;;;;;;;47.67;31.30;;;;;;;;;;5096398;28;20030;-67
2022/03/18 08:16:00;;;;;;;57.53;35.67;;;;;;;;;;5092956;28;20019;-69
2022/03/18 08:18:26;;;;;;;43.05;29.60;;;;;;;;;;5078414;28;20023;-68
2022/03/18 08:20:52;;;;;;;42.50;29.88;;;;;;;;;;5097053;28;20046;-68
2022/03/18 08:23:19;;;;;;;51.55;31.50;;;;;;;;;;5096750;28;20023;-68
2022/03/18 08:25:45;;;;;;;50.30;32.70;;;;;;;;;;5096701;28;20027;-68
2022/03/18 08:28:11;;;;;;;49.88;33.35;;;;;;;;;;5075609;28;23622;-68
2022/03/18 08:30:39;;;;;;;51.88;34.30;;;;;;;;;;5090954;28;20043;-67
2022/03/18 08:33:05;;;;;;;48.90;34.08;;;;;;;;;;5097411;28;20032;-67
2022/03/18 08:35:32;;;;;;;56.17;35.47;;;;;;;;;;5096669;28;20020;-68
2022/03/18 08:37:58;;;;;;;49.08;33.90;;;;;;;;;;5095830;28;20028;-68
2022/03/18 08:40:24;;;;;;;51.03;35.22;;;;;;;;;;5095112;28;20078;-67
2022/03/18 08:42:50;;;;;;;54.05;34.55;;;;;;;;;;5093800;28;20042;-69
2022/03/18 08:45:16;;;;;;;49.60;34.20;;;;;;;;;;5096397;28;20532;-67
2022/03/18 08:47:43;;;;;;;55.38;35.75;;;;;;;;;;5077684;28;20031;-68
2022/03/18 08:50:10;;;;;;;56.17;35.65;;;;;;;;;;5096321;28;20047;-67
2022/03/18 08:52:36;;;;;;;50.42;34.85;;;;;;;;;;5095842;28;20020;-68
2022/03/18 08:55:03;;;;;;;50.28;33.78;;;;;;;;;;5092556;28;20468;-68
2022/03/18 08:57:31;;;;;;;54.30;34.95;;;;;;;;;;5076934;28;20408;-68
2022/03/18 08:59:57;;;;;;;54.05;36.85;;;;;;;;;;5078514;28;20027;-68
2022/03/18 09:02:23;;;;;;;52.05;31.58;;;;;;;;;;5096499;28;20032;-68
2022/03/18 09:04:51;;;;;;;50.67;33.97;;;;;;;;;;5096350;28;20023;-68
2022/03/18 09:07:20;;;;;;;47.50;30.08;;;;;;;;;;5092883;28;20097;-67
2022/03/18 09:09:46;;;;;;;42.50;29.70;;;;;;;;;;5107680;28;20015;-66
2022/03/18 09:12:12;;;;;;;44.17;28.27;;;;;;;;;;5095547;28;20039;-67
2022/03/18 09:14:38;;;;;;;37.13;25.40;;;;;;;;;;5096306;28;20023;-67
2022/03/18 09:17:05;;;;;;;40.10;26.90;;;;;;;;;;5078323;28;20073;-67
2022/03/18 09:19:30;;;;;;;36.53;23.95;;;;;;;;;;5094564;28;20048;-67
2022/03/18 09:21:56;;;;;;;33.33;23.67;;;;;;;;;;5092727;28;23613;-67
2022/03/18 09:24:22;;;;;;;34.95;22.13;;;;;;;;;;5106976;28;20028;-66
2022/03/18 09:26:48;;;;;;;31.58;23.05;;;;;;;;;;5097936;28;20078;-67
2022/03/18 09:29:14;;;;;;;32.25;23.38;;;;;;;;;;5095447;28;20040;-67
2022/03/18 09:31:40;;;;;;;33.08;23.27;;;;;;;;;;5095967;28;20036;-67
2022/03/18 09:34:06;;;;;;;37.72;22.77;;;;;;;;;;5074152;28;20030;-67
2022/03/18 09:36:32;;;;;;;33.67;23.17;;;;;;;;;;5106604;28;20045;-67
2022/03/18 09:38:58;;;;;;;34.22;23.50;;;;;;;;;;5096280;28;20054;-67
2022/03/18 09:41:25;;;;;;;36.92;24.38;;;;;;;;;;5095432;28;20039;-67
2022/03/18 09:43:51;;;;;;;40.45;26.63;;;;;;;;;;5096118;28;20016;-67
2022/03/18 09:46:17;;;;;;;36.22;25.35;;;;;;;;;;5092524;28;20469;-67
2022/03/18 09:48:44;;;;;;;42.60;25.08;;;;;;;;;;5093232;28;20069;-67
2022/03/18 09:51:10;;;;;;;35.05;24.90;;;;;;;;;;5105454;28;20111;-67
2022/03/18 09:53:36;;;;;;;42.53;26.48;;;;;;;;;;5099669;28;20052;-67
2022/03/18 09:56:03;;;;;;;33.75;22.77;;;;;;;;;;5095309;28;20020;-67
2022/03/18 09:58:29;;;;;;;39.00;26.42;;;;;;;;;;5078608;28;20115;-67
2022/03/18 10:00:59;;;;;;;39.92;25.70;;;;;;;;;;5096752;28;20133;-68
2022/03/18 10:03:37;;;;;;;38.22;26.50;;;;;;;;;;5110490;28;20438;-67
2022/03/18 10:06:04;;;;;;;36.25;23.52;;;;;;;;;;5108843;28;20066;-67
2022/03/18 10:08:39;;;;;;;39.08;24.85;;;;;;;;;;5107957;28;20106;-67
2022/03/18 10:11:14;;;;;;;37.60;24.63;;;;;;;;;;5107263;28;20039;-67
2022/03/18 10:13:56;;;;;;;36.20;24.50;;;;;;;;;;5099696;28;20506;-67
2022/03/18 10:16:42;;;;;;;37.63;25.05;;;;;;;;;;5097337;28;20052;-67
2022/03/18 10:19:19;;;;;;;33.58;23.13;;;;;;;;;;5092951;28;20039;-68
2022/03/18 10:21:51;;;;;;;37.72;23.25;;;;;;;;;;5078703;28;20035;-67
2022/03/18 10:24:18;;;;;;;31.63;23.77;;;;;;;;;;5098669;28;20503;-68
2022/03/18 10:26:44;;;;;;;39.15;25.48;;;;;;;;;;5099695;28;20034;-66
2022/03/18 10:29:11;;;;;;;34.22;23.08;;;;;;;;;;5080995;28;20126;-67
2022/03/18 10:31:39;;;;;;;34.25;21.95;;;;;;;;;;5099115;28;20027;-67
2022/03/18 10:37:05;;;;;;;35.15;24.25;;;;;;;;;;5110895;28;20096;-67
2022/03/18 10:39:41;;;;;;;39.58;25.00;;;;;;;;;;5098376;28;20027;-67
2022/03/18 10:42:11;;;;;;;34.70;23.77;;;;;;;;;;5099356;28;20062;-67
2022/03/18 10:44:44;;;;;;;35.35;24.83;;;;;;;;;;5098976;28;20024;-67
2022/03/18 10:47:10;;;;;;;36.75;23.35;;;;;;;;;;5098695;28;20032;-67
2022/03/18 10:49:35;;;;;;;39.70;25.55;;;;;;;;;;5099938;28;20015;-67
2022/03/18 10:52:13;;;;;;;35.10;24.88;;;;;;;;;;5111758;28;20490;-68
2022/03/18 10:54:39;;;;;;;38.95;24.70;;;;;;;;;;5094313;28;20019;-68
2022/03/18 10:57:04;;;;;;;35.03;24.92;;;;;;;;;;5111687;28;20012;-68
2022/03/18 10:59:32;;;;;;;37.95;25.70;;;;;;;;;;5111426;28;20024;-68
2022/03/18 11:01:58;;;;;;;34.95;24.75;;;;;;;;;;5111835;28;20027;-68
2022/03/18 11:04:26;;;;;;;35.97;25.60;;;;;;;;;;5112009;28;20445;-67
2022/03/18 11:12:41;;;;;;;37.20;22.88;;;;;;;;;;5112342;28;20134;-69
2022/03/18 11:15:08;;;;;;;35.58;22.02;;;;;;;;;;5112042;28;20020;-67
2022/03/18 11:17:34;;;;;;;31.52;23.88;;;;;;;;;;5111181;28;20030;-68
2022/03/18 11:20:01;;;;;;;36.47;22.27;;;;;;;;;;5093724;28;20023;-67
2022/03/18 11:22:28;;;;;;;37.55;23.05;;;;;;;;;;5110876;28;20024;-67
2022/03/18 11:24:54;;;;;;;30.50;19.27;;;;;;;;;;5111381;28;20027;-67
2022/03/18 11:27:20;;;;;;;31.55;22.45;;;;;;;;;;5113240;28;20380;-67
2022/03/18 11:29:46;;;;;;;32.60;22.00;;;;;;;;;;5110882;28;20066;-68
2022/03/18 11:32:12;;;;;;;30.65;21.50;;;;;;;;;;5110690;28;20527;-68
2022/03/18 11:34:45;;;;;;;31.58;21.02;;;;;;;;;;5110892;28;20038;-68
2022/03/18 11:37:12;;;;;;;30.90;20.48;;;;;;;;;;5109217;28;20031;-68
2022/03/18 11:39:38;;;;;;;32.55;21.15;;;;;;;;;;5112313;28;20031;-67
2022/03/18 11:42:09;;;;;;;29.10;20.17;;;;;;;;;;5094350;28;20065;-66
2022/03/18 11:45:01;;;;;;;32.10;20.83;;;;;;;;;;5093905;28;20026;-67
2022/03/18 11:47:28;;;;;;;29.52;20.70;;;;;;;;;;5091159;28;20019;-68
2022/03/18 11:49:55;;;;;;;27.65;20.20;;;;;;;;;;5110342;28;20022;-65
2022/03/18 11:52:21;;;;;;;27.17;20.55;;;;;;;;;;5110357;28;20059;-65
2022/03/18 11:55:01;;;;;;;31.60;20.80;;;;;;;;;;5111824;28;20046;-67
2022/03/18 11:57:28;;;;;;;30.30;19.92;;;;;;;;;;5112024;28;20015;-67
2022/03/18 11:59:55;;;;;;;33.92;20.88;;;;;;;;;;5093061;28;20032;-65
2022/03/18 12:02:31;;;;;;;28.75;21.85;;;;;;;;;;5093219;28;20051;-65
2022/03/18 12:04:58;;;;;;;29.08;19.88;;;;;;;;;;5106364;28;20106;-66
2022/03/18 12:07:29;;;;;;;30.80;20.65;;;;;;;;;;5110202;28;20062;-65
2022/03/18 12:09:59;;;;;;;27.73;19.92;;;;;;;;;;5110512;28;20110;-67
2022/03/18 12:12:39;;;;;;;32.55;20.75;;;;;;;;;;5092920;28;20043;-65
2022/03/18 12:15:08;;;;;;;31.02;19.88;;;;;;;;;;5081500;28;20119;-65
2022/03/18 12:17:41;;;;;;;30.15;20.75;;;;;;;;;;5104302;28;20384;-67
2022/03/18 12:20:07;;;;;;;30.50;20.25;;;;;;;;;;5108805;28;20142;-69
2022/03/18 12:22:37;;;;;;;27.48;20.10;;;;;;;;;;5108981;28;20026;-69
2022/03/18 12:25:04;;;;;;;27.20;18.63;;;;;;;;;;5092158;28;20035;-70
2022/03/18 12:27:36;;;;;;;26.98;18.25;;;;;;;;;;5096586;28;20028;-65
2022/03/18 12:30:03;;;;;;;27.58;18.90;;;;;;;;;;5096644;28;20067;-66
2022/03/18 12:32:29;;;;;;;27.88;18.85;;;;;;;;;;5096687;28;20036;-66
2022/03/18 12:34:56;;;;;;;27.60;18.40;;;;;;;;;;5097295;28;20047;-66
2022/03/18 12:37:23;;;;;;;28.38;20.40;;;;;;;;;;5093988;28;20423;-66
2022/03/18 12:40:06;;;;;;;29.38;20.27;;;;;;;;;;5109059;28;20024;-66
2022/03/18 12:42:44;;;;;;;30.02;20.02;;;;;;;;;;5107922;28;20088;-66
2022/03/18 12:45:11;;;;;;;27.73;19.40;;;;;;;;;;5106537;28;20035;-66
2022/03/18 12:47:38;;;;;;;26.73;19.30;;;;;;;;;;5100296;28;20008;-66
2022/03/18 12:50:04;;;;;;;27.40;20.05;;;;;;;;;;5096274;28;20024;-66
2022/03/18 12:52:30;;;;;;;24.08;18.77;;;;;;;;;;5095069;28;20046;-66
2022/03/18 12:55:08;;;;;;;28.38;19.02;;;;;;;;;;5074698;28;20024;-66
2022/03/18 12:57:43;;;;;;;29.83;20.10;;;;;;;;;;5089531;28;20442;-66
2022/03/18 13:00:11;;;;;;;27.90;19.52;;;;;;;;;;5106092;28;20023;-66
2022/03/18 13:02:38;;;;;;;27.08;18.88;;;;;;;;;;5081330;28;20519;-66
2022/03/18 13:05:05;;;;;;;25.67;19.20;;;;;;;;;;5095743;28;20047;-66
2022/03/18 13:07:31;;;;;;;25.33;18.67;;;;;;;;;;5095327;28;20149;-66
2022/03/18 13:09:58;;;;;;;26.15;18.92;;;;;;;;;;5107033;28;20519;-66
2022/03/18 13:12:24;;;;;;;23.38;18.00;;;;;;;;;;5095540;28;20063;-66
2022/03/18 13:14:53;;;;;;;25.90;17.55;;;;;;;;;;5078154;28;20034;-66
2022/03/18 13:17:23;;;;;;;23.88;17.05;;;;;;;;;;5099180;28;20024;-67
2022/03/18 13:19:51;;;;;;;22.45;16.92;;;;;;;;;;5106143;28;20476;-66
2022/03/18 13:22:28;;;;;;;22.83;16.40;;;;;;;;;;5075120;28;20028;-66
2022/03/18 13:24:55;;;;;;;23.73;15.27;;;;;;;;;;5093201;28;20115;-66
2022/03/18 13:27:22;;;;;;;20.77;13.57;;;;;;;;;;5095578;28;20028;-66
2022/03/18 13:32:53;;;;;;;21.25;14.95;;;;;;;;;;5095608;28;20051;-66
2022/03/18 13:35:20;;;;;;;23.08;14.68;;;;;;;;;;5096231;28;20023;-65
2022/03/18 13:38:05;;;;;;;22.85;15.55;;;;;;;;;;5095873;28;20484;-65
2022/03/18 13:40:32;;;;;;;22.90;15.02;;;;;;;;;;5095102;28;20038;-67
2022/03/18 13:43:00;;;;;;;21.42;15.25;;;;;;;;;;5091590;28;20107;-65
2022/03/18 13:45:26;;;;;;;;;;;;;;;;;;5096022;28;20016;-65
2022/03/18 13:47:52;;;;;;;18.85;12.35;;;;;;;;;;5078207;28;19916;-66
2022/03/18 13:50:19;;;;;;;26.23;14.95;;;;;;;;;;5096066;28;20550;-67
2022/03/18 13:52:45;;;;;;;21.63;13.25;;;;;;;;;;5077725;28;20047;-67
2022/03/18 13:55:27;;;;;;;21.38;14.70;;;;;;;;;;5093150;28;20035;-67
2022/03/18 13:57:53;;;;;;;19.83;14.60;;;;;;;;;;5107232;28;20019;-67
2022/03/18 14:00:26;;;;;;;18.42;11.38;;;;;;;;;;5095443;28;20516;-66
2022/03/18 14:03:11;;;;;;;18.77;13.65;;;;;;;;;;5095610;28;20028;-66
2022/03/18 14:05:37;;;;;;;21.02;13.63;;;;;;;;;;5095787;28;20020;-66
2022/03/18 14:08:04;;;;;;;23.33;14.00;;;;;;;;;;5096198;28;20024;-66
2022/03/18 14:10:45;;;;;;;22.75;15.82;;;;;;;;;;5106958;28;20103;-67
2022/03/18 14:13:12;;;;;;;21.30;15.23;;;;;;;;;;5091925;28;20024;-67
2022/03/18 14:15:41;;;;;;;23.23;15.75;;;;;;;;;;5094261;28;20028;-67
2022/03/18 14:18:10;;;;;;;21.55;15.30;;;;;;;;;;5096141;28;20051;-67
2022/03/18 14:21:03;;;;;;;22.77;16.05;;;;;;;;;;5077715;28;20544;-67
2022/03/18 14:23:30;;;;;;;24.50;16.00;;;;;;;;;;5092059;28;20596;-72
2022/03/18 14:25:57;;;;;;;20.85;15.18;;;;;;;;;;5095393;28;20427;-73
2022/03/18 14:28:27;;;;;;;21.85;15.05;;;;;;;;;;5093043;28;20024;-72
2022/03/18 14:30:53;;;;;;;24.63;15.60;;;;;;;;;;5074599;28;20054;-70
2022/03/18 14:33:21;;;;;;;20.50;15.80;;;;;;;;;;5094806;28;20477;-70
2022/03/18 14:35:49;;;;;;;24.07;14.27;;;;;;;;;;5074556;28;20020;-71
2022/03/18 14:38:15;;;;;;;23.08;15.30;;;;;;;;;;5077818;28;20024;-70
2022/03/18 14:40:42;;;;;;;24.98;14.98;;;;;;;;;;5095080;28;20027;-70
2022/03/18 14:43:08;;;;;;;23.70;16.30;;;;;;;;;;5090518;28;20084;-70
2022/03/18 14:45:34;;;;;;;20.88;15.32;;;;;;;;;;5096750;28;20039;-71
2022/03/18 14:48:01;;;;;;;21.83;14.93;;;;;;;;;;5097880;28;20028;-71
2022/03/18 14:50:27;;;;;;;23.42;15.48;;;;;;;;;;5079055;28;20492;-71